Time;durP1;ratioP1;P1;durP2;ratioP2;P2;SDS_P1;SDS_P2;PMS_P1;PMS_P2;Temp;Humidity;BMP_temperature;BMP_pressure;BME280_temperature;BME280_humidity;BME280_pressure;Samples;Min_cycle;Max_cycle;Signal;HPM_P1;HPM_P2
2021/03/18 00:01:45;;;;;;;5.65;4.25;;;;;;;6.69;67.49;99139.56;5042878;28;20029;-65
2021/03/18 00:04:15;;;;;;;7.63;4.63;;;;;;;6.70;67.84;99135.97;5044734;28;20274;-65
2021/03/18 00:06:41;;;;;;;7.38;5.13;;;;;;;6.81;67.42;99150.69;5045103;28;20091;-65
2021/03/18 00:09:08;;;;;;;7.00;4.63;;;;;;;6.61;67.18;99135.06;5044967;28;20331;-64
2021/03/18 00:11:36;;;;;;;6.47;4.70;;;;;;;6.75;67.00;99146.84;5047077;28;20025;-65
2021/03/18 00:14:02;;;;;;;9.13;4.75;;;;;;;6.54;67.20;99134.03;5045933;28;20274;-70
2021/03/18 00:16:27;;;;;;;8.55;5.30;;;;;;;6.82;66.82;99137.38;5062524;28;20103;-71
2021/03/18 00:18:54;;;;;;;6.63;5.07;;;;;;;6.63;66.37;99142.81;5056755;28;20076;-71
2021/03/18 00:21:21;;;;;;;7.65;5.43;;;;;;;6.61;66.36;99148.22;5044351;28;20378;-64
2021/03/18 00:23:47;;;;;;;7.93;5.20;;;;;;;6.65;66.82;99151.38;5046487;28;20096;-65
2021/03/18 00:26:13;;;;;;;9.35;4.80;;;;;;;6.67;66.46;99144.16;5046260;28;20067;-65
2021/03/18 00:28:39;;;;;;;7.50;4.95;;;;;;;6.69;65.78;99142.19;5046433;28;20034;-65
2021/03/18 00:31:05;;;;;;;8.93;5.10;;;;;;;6.74;65.74;99142.56;5041937;28;20033;-65
2021/03/18 00:33:31;;;;;;;8.02;5.72;;;;;;;6.62;65.94;99131.47;5050752;28;20098;-65
2021/03/18 00:35:57;;;;;;;8.13;5.82;;;;;;;6.66;65.72;99142.50;5047252;28;20037;-66
2021/03/18 00:38:24;;;;;;;9.25;5.75;;;;;;;6.49;66.43;99145.97;5044771;28;20018;-65
2021/03/18 00:40:56;;;;;;;9.88;5.75;;;;;;;6.60;65.87;99143.09;5058145;28;20116;-65
2021/03/18 00:43:23;;;;;;;11.23;6.20;;;;;;;6.71;64.88;99145.50;5043460;28;20032;-64
2021/03/18 00:45:50;;;;;;;8.13;5.47;;;;;;;6.85;64.81;99152.03;5043796;28;20025;-70
2021/03/18 00:48:18;;;;;;;7.15;5.10;;;;;;;6.89;65.62;99153.38;5045346;28;20037;-70
2021/03/18 00:51:04;;;;;;;9.43;5.00;;;;;;;6.94;64.81;99151.13;5044982;28;20090;-70
2021/03/18 00:53:36;;;;;;;7.03;5.00;;;;;;;6.69;66.23;99150.91;5056982;28;20029;-71
2021/03/18 00:56:04;;;;;;;7.32;5.15;;;;;;;6.60;66.10;99156.25;5057043;28;20044;-71
2021/03/18 00:58:30;;;;;;;9.18;6.00;;;;;;;6.76;65.69;99153.78;5043520;28;20595;-71
2021/03/18 01:00:58;;;;;;;10.82;6.78;;;;;;;6.79;65.44;99158.72;5041779;28;20033;-70
2021/03/18 01:03:25;;;;;;;9.98;6.85;;;;;;;6.77;65.29;99144.91;5052498;28;20092;-71
2021/03/18 01:05:58;;;;;;;9.80;6.13;;;;;;;6.77;65.04;99152.78;5045820;28;20263;-71
2021/03/18 01:08:29;;;;;;;7.70;5.78;;;;;;;6.77;65.21;99155.41;5041884;28;20040;-71
2021/03/18 01:11:04;;;;;;;7.38;5.93;;;;;;;6.85;65.41;99160.75;5054492;28;20082;-71
2021/03/18 01:13:30;;;;;;;10.05;6.55;;;;;;;6.76;64.95;99151.13;5061226;28;20246;-64
2021/03/18 01:16:05;;;;;;;9.82;5.63;;;;;;;6.81;65.25;99158.56;5042165;28;20040;-70
2021/03/18 01:18:46;;;;;;;9.13;6.18;;;;;;;6.91;64.10;99156.69;5044762;28;21412;-65
2021/03/18 01:21:12;;;;;;;8.63;6.15;;;;;;;6.94;63.88;99157.19;5043315;28;20040;-70
2021/03/18 01:23:39;;;;;;;9.02;6.97;;;;;;;6.82;64.27;99158.44;5059291;28;20032;-70
2021/03/18 01:26:06;;;;;;;9.00;5.97;;;;;;;6.89;64.11;99156.00;5059895;28;20025;-64
2021/03/18 01:28:32;;;;;;;10.02;6.38;;;;;;;6.72;64.11;99153.25;5059768;28;20037;-64
2021/03/18 01:30:58;;;;;;;9.02;6.50;;;;;;;6.85;64.01;99159.94;5052574;28;20049;-64
2021/03/18 01:33:25;;;;;;;9.52;6.60;;;;;;;6.80;64.04;99149.03;5060326;28;20052;-64
2021/03/18 01:35:51;;;;;;;9.60;6.40;;;;;;;6.86;63.79;99157.13;5058779;28;20108;-64
2021/03/18 01:38:16;;;;;;;9.38;6.90;;;;;;;6.73;64.14;99154.06;5061095;28;20100;-66
2021/03/18 01:40:42;;;;;;;9.88;7.18;;;;;;;6.83;64.30;99156.63;5058984;28;20033;-65
2021/03/18 01:43:08;;;;;;;9.00;6.53;;;;;;;6.82;63.70;99160.22;5049729;28;20390;-65
2021/03/18 01:45:34;;;;;;;10.82;6.82;;;;;;;6.77;63.78;99149.34;5044337;28;20092;-65
2021/03/18 01:48:00;;;;;;;12.98;7.65;;;;;;;6.83;64.09;99165.34;5042317;28;20072;-64
2021/03/18 01:50:29;;;;;;;10.75;7.03;;;;;;;6.76;64.05;99160.84;5044606;28;20036;-70
2021/03/18 01:52:57;;;;;;;12.93;7.63;;;;;;;6.79;63.80;99166.63;5072623;28;20037;-70
2021/03/18 01:55:43;;;;;;;10.27;7.20;;;;;;;6.73;63.46;99167.22;5044647;28;20070;-65
2021/03/18 01:58:10;;;;;;;13.38;7.93;;;;;;;6.93;63.86;99171.34;5044183;28;20064;-65
2021/03/18 02:00:38;;;;;;;11.27;7.32;;;;;;;6.97;63.31;99170.06;5042624;28;20026;-65
2021/03/18 02:03:04;;;;;;;11.15;6.78;;;;;;;6.81;63.83;99180.44;5044079;28;20229;-65
2021/03/18 02:05:30;;;;;;;10.50;7.47;;;;;;;6.71;63.96;99156.84;5043562;28;20093;-65
2021/03/18 02:07:57;;;;;;;11.13;7.75;;;;;;;6.78;64.06;99177.31;5060219;28;20060;-65
2021/03/18 02:10:25;;;;;;;13.82;8.63;;;;;;;6.79;63.66;99189.47;5051261;28;20104;-64
2021/03/18 02:12:51;;;;;;;13.27;7.90;;;;;;;6.73;63.83;99191.72;5042909;28;20051;-70
2021/03/18 02:15:19;;;;;;;11.05;7.93;;;;;;;6.93;63.61;99194.19;5046852;28;20326;-70
2021/03/18 02:18:00;;;;;;;11.35;7.68;;;;;;;6.89;63.61;99198.13;5043526;28;20044;-65
2021/03/18 02:21:01;;;;;;;13.40;8.75;;;;;;;6.86;63.91;99201.88;5045224;28;20331;-65
2021/03/18 02:24:04;;;;;;;17.27;8.95;;;;;;;6.81;63.43;99198.88;5044794;28;20027;-65
2021/03/18 02:26:35;;;;;;;14.57;9.32;;;;;;;6.91;63.44;99207.50;5060612;28;20096;-64
2021/03/18 02:29:07;;;;;;;13.32;8.48;;;;;;;6.88;63.14;99207.81;5044958;28;20048;-64
2021/03/18 02:31:53;;;;;;;13.15;8.65;;;;;;;6.93;63.27;99207.38;5046688;28;20048;-65
2021/03/18 02:34:27;;;;;;;12.85;8.73;;;;;;;7.02;63.38;99206.44;5045763;28;20017;-64
2021/03/18 02:37:03;;;;;;;;;;;;;;;7.18;62.20;99211.00;5047824;28;20025;-65
2021/03/18 02:39:36;;;;;;;12.98;8.25;;;;;;;7.03;62.48;99210.72;5046156;28;20004;-65
2021/03/18 02:42:05;;;;;;;12.97;8.30;;;;;;;6.87;63.57;99224.59;5045671;28;20041;-71
2021/03/18 02:44:33;;;;;;;11.18;7.78;;;;;;;6.91;63.02;99225.94;5064052;28;20520;-70
2021/03/18 02:47:10;;;;;;;11.48;8.40;;;;;;;6.88;63.29;99220.16;5061097;28;20048;-70
2021/03/18 02:49:41;;;;;;;10.68;7.63;;;;;;;6.98;62.49;99223.53;5046019;28;20029;-65
2021/03/18 02:52:08;;;;;;;13.20;8.98;;;;;;;6.96;63.05;99228.94;5047458;28;20021;-65
2021/03/18 02:54:35;;;;;;;13.38;8.43;;;;;;;7.03;62.07;99224.72;5046761;28;20079;-65
2021/03/18 02:57:03;;;;;;;12.07;8.55;;;;;;;6.98;62.77;99229.63;5046407;28;20052;-64
2021/03/18 02:59:38;;;;;;;10.57;7.45;;;;;;;7.05;61.84;99229.84;5049646;28;20212;-64
2021/03/18 03:02:09;;;;;;;12.20;8.50;;;;;;;6.99;61.83;99231.28;5047286;28;20027;-65
2021/03/18 03:04:37;;;;;;;9.95;7.47;;;;;;;7.14;61.84;99236.81;5044236;28;20037;-65
2021/03/18 03:07:05;;;;;;;11.95;7.97;;;;;;;7.13;62.36;99235.16;5044724;28;20036;-65
2021/03/18 03:09:32;;;;;;;12.38;8.48;;;;;;;6.92;62.24;99227.59;5045983;28;20354;-65
2021/03/18 03:12:03;;;;;;;12.52;8.38;;;;;;;7.03;62.43;99235.25;5043659;28;20280;-70
2021/03/18 03:14:31;;;;;;;11.70;8.13;;;;;;;7.11;61.35;99244.19;5044842;28;20215;-70
2021/03/18 03:16:59;;;;;;;12.00;8.05;;;;;;;6.97;62.44;99250.81;5047782;28;20033;-65
2021/03/18 03:19:25;;;;;;;11.13;7.70;;;;;;;7.00;61.81;99246.09;5058629;28;20021;-70
2021/03/18 03:21:51;;;;;;;12.60;8.43;;;;;;;7.12;62.09;99240.59;5048983;28;20092;-70
2021/03/18 03:24:18;;;;;;;12.10;8.05;;;;;;;6.98;62.40;99250.69;5044641;28;20052;-65
2021/03/18 03:26:44;;;;;;;13.43;9.25;;;;;;;7.05;61.94;99248.25;5045718;28;20056;-65
2021/03/18 03:29:10;;;;;;;13.65;9.05;;;;;;;7.13;61.87;99256.22;5043047;28;20256;-65
2021/03/18 03:31:36;;;;;;;12.40;8.35;;;;;;;7.11;62.24;99245.03;5049751;28;20044;-64
2021/03/18 03:34:04;;;;;;;12.88;9.02;;;;;;;7.14;61.12;99249.16;5042255;28;20326;-64
2021/03/18 03:36:31;;;;;;;15.25;10.45;;;;;;;7.03;61.39;99256.31;5045474;28;20272;-64
2021/03/18 03:38:57;;;;;;;14.52;9.30;;;;;;;7.07;61.94;99256.00;5047342;28;20120;-65
2021/03/18 03:41:22;;;;;;;13.10;9.32;;;;;;;7.06;61.55;99249.91;5043904;28;20091;-71
2021/03/18 03:43:49;;;;;;;15.07;9.40;;;;;;;7.02;61.27;99257.28;5043989;28;20031;-71
2021/03/18 03:46:14;;;;;;;12.43;8.50;;;;;;;7.07;61.69;99254.19;5051322;28;20028;-65
2021/03/18 03:48:40;;;;;;;15.05;9.40;;;;;;;7.14;61.29;99252.63;5045243;28;20064;-65
2021/03/18 03:51:06;;;;;;;14.80;9.15;;;;;;;7.16;60.91;99253.28;5047900;28;20059;-65
2021/03/18 03:53:55;;;;;;;14.27;9.80;;;;;;;7.12;61.53;99253.75;5046718;28;20316;-71
2021/03/18 03:56:55;;;;;;;14.38;9.60;;;;;;;7.16;60.40;99253.28;5049857;28;20030;-64
2021/03/18 03:59:23;;;;;;;13.73;9.55;;;;;;;6.99;61.76;99257.59;5048944;28;20049;-64
2021/03/18 04:01:56;;;;;;;16.83;9.90;;;;;;;7.13;61.27;99258.03;5044571;28;20045;-64
2021/03/18 04:04:26;;;;;;;14.90;9.95;;;;;;;7.22;60.96;99263.22;5044349;28;20024;-65
2021/03/18 04:07:03;;;;;;;17.17;10.90;;;;;;;7.10;61.30;99271.50;5042933;28;20032;-65
2021/03/18 04:09:30;;;;;;;18.38;12.00;;;;;;;7.29;60.75;99271.38;5045339;28;20044;-65
2021/03/18 04:11:57;;;;;;;21.27;12.88;;;;;;;7.27;60.82;99265.38;5044672;28;20202;-71
2021/03/18 04:14:33;;;;;;;24.95;14.27;;;;;;;7.07;61.01;99272.63;5042409;28;20067;-65
2021/03/18 04:17:05;;;;;;;22.35;13.98;;;;;;;7.08;60.93;99269.03;5046280;28;20068;-64
2021/03/18 04:19:31;;;;;;;22.77;13.88;;;;;;;7.13;60.57;99272.03;5053824;28;20092;-64
2021/03/18 04:21:57;;;;;;;17.80;11.55;;;;;;;7.10;60.45;99276.78;5048740;28;20052;-71
2021/03/18 04:24:24;;;;;;;19.83;11.45;;;;;;;7.17;60.78;99276.00;5044510;28;20053;-70
2021/03/18 04:26:51;;;;;;;18.17;11.45;;;;;;;7.11;60.33;99283.69;5045184;28;20626;-65
2021/03/18 04:29:17;;;;;;;18.02;11.27;;;;;;;6.93;61.05;99287.16;5044068;28;20088;-65
2021/03/18 04:31:44;;;;;;;16.40;11.05;;;;;;;6.99;61.64;99290.97;5046732;28;20334;-65
2021/03/18 04:34:12;;;;;;;19.17;12.13;;;;;;;7.00;60.41;99276.84;5042371;28;20057;-65
2021/03/18 04:36:39;;;;;;;21.88;13.63;;;;;;;7.06;60.74;99292.03;5045057;28;20033;-65
2021/03/18 04:39:06;;;;;;;18.35;12.07;;;;;;;6.94;60.78;99288.81;5044451;28;20068;-64
2021/03/18 04:41:32;;;;;;;19.10;11.85;;;;;;;7.03;60.82;99294.97;5043829;28;20063;-70
2021/03/18 04:43:59;;;;;;;19.48;11.88;;;;;;;7.03;60.77;99292.34;5046606;28;20036;-71
2021/03/18 04:46:26;;;;;;;20.83;11.85;;;;;;;7.05;60.75;99299.09;5041606;28;20040;-71
2021/03/18 04:48:55;;;;;;;17.98;10.80;;;;;;;7.11;59.89;99299.47;5045342;28;20193;-71
2021/03/18 04:51:21;;;;;;;19.83;11.55;;;;;;;7.26;59.74;99306.69;5045542;28;20025;-71
2021/03/18 04:53:46;;;;;;;18.95;11.27;;;;;;;7.07;60.66;99306.84;5041126;28;20365;-65
2021/03/18 04:56:12;;;;;;;18.98;11.52;;;;;;;7.11;60.61;99312.66;5061645;28;20247;-70
2021/03/18 04:58:39;;;;;;;19.25;12.02;;;;;;;7.05;60.69;99306.19;5059736;28;20024;-72
2021/03/18 05:01:06;;;;;;;21.50;13.23;;;;;;;7.02;61.40;99309.09;5044183;28;20255;-71
2021/03/18 05:03:33;;;;;;;29.55;15.05;;;;;;;7.38;60.95;99317.03;5045671;28;20084;-70
2021/03/18 05:06:00;;;;;;;24.05;13.60;;;;;;;7.63;60.31;99311.81;5041961;28;20101;-71
2021/03/18 05:08:28;;;;;;;20.52;12.55;;;;;;;7.50;59.91;99318.44;5046620;28;20328;-70
2021/03/18 05:10:54;;;;;;;19.88;12.80;;;;;;;7.43;59.64;99317.41;5042024;28;20192;-70
2021/03/18 05:13:21;;;;;;;22.38;12.88;;;;;;;7.44;59.53;99327.78;5046092;28;20025;-71
2021/03/18 05:15:47;;;;;;;26.20;13.70;;;;;;;7.54;59.33;99320.63;5044077;28;20021;-68
2021/03/18 05:18:15;;;;;;;26.92;14.30;;;;;;;7.54;59.26;99309.25;5043879;28;20029;-71
2021/03/18 05:20:42;;;;;;;23.17;12.50;;;;;;;7.41;59.31;99317.56;5043933;28;20033;-71
2021/03/18 05:23:09;;;;;;;21.40;12.20;;;;;;;7.50;59.08;99323.72;5043770;28;20387;-65
2021/03/18 05:25:36;;;;;;;19.70;11.73;;;;;;;7.32;58.52;99324.56;5045703;28;20043;-65
2021/03/18 05:28:02;;;;;;;22.08;11.55;;;;;;;7.15;59.42;99300.84;5041277;28;20063;-71
2021/03/18 05:30:30;;;;;;;20.83;11.48;;;;;;;7.34;59.24;99327.88;5044623;28;20033;-71
2021/03/18 05:32:58;;;;;;;16.73;10.52;;;;;;;7.50;59.11;99328.97;5052531;28;20025;-70
2021/03/18 05:35:23;;;;;;;16.60;10.88;;;;;;;7.45;58.73;99323.34;5061268;28;20090;-71
2021/03/18 05:37:49;;;;;;;20.23;11.40;;;;;;;7.60;58.50;99330.56;5057382;28;20299;-71
2021/03/18 05:40:16;;;;;;;22.02;11.35;;;;;;;7.56;58.41;99338.91;5053701;28;20045;-71
2021/03/18 05:42:42;;;;;;;18.05;11.00;;;;;;;7.50;58.44;99337.72;5050387;28;20056;-70
2021/03/18 05:45:11;;;;;;;18.85;10.90;;;;;;;7.59;58.44;99335.97;5043879;28;20303;-70
2021/03/18 05:47:37;;;;;;;17.92;10.30;;;;;;;7.57;58.53;99343.19;5042570;28;20029;-70
2021/03/18 05:50:06;;;;;;;19.20;11.23;;;;;;;7.45;59.15;99349.69;5046113;28;20048;-71
2021/03/18 05:52:34;;;;;;;15.63;10.27;;;;;;;7.45;58.96;99350.50;5043647;28;20033;-70
2021/03/18 05:54:59;;;;;;;15.73;10.73;;;;;;;7.63;57.81;99353.13;5055952;28;20030;-71
2021/03/18 05:57:26;;;;;;;20.98;11.02;;;;;;;7.66;58.45;99344.91;5044969;28;20017;-65
2021/03/18 05:59:53;;;;;;;17.50;10.80;;;;;;;7.61;58.66;99347.19;5042351;28;20052;-66
2021/03/18 06:02:19;;;;;;;18.33;11.32;;;;;;;7.91;58.34;99352.03;5043685;28;20342;-65
2021/03/18 06:04:45;;;;;;;16.42;10.35;;;;;;;7.90;57.67;99360.09;5043793;28;20057;-64
2021/03/18 06:07:11;;;;;;;18.30;10.27;;;;;;;7.93;58.04;99360.59;5045301;28;20147;-65
2021/03/18 06:09:37;;;;;;;15.55;9.52;;;;;;;8.00;57.70;99359.00;5047545;28;20338;-67
2021/03/18 06:12:03;;;;;;;17.00;9.20;;;;;;;8.23;57.24;99359.31;5044766;28;20029;-71
2021/03/18 06:14:29;;;;;;;15.02;9.25;;;;;;;8.18;57.35;99352.84;5048511;28;20315;-73
2021/03/18 06:16:56;;;;;;;18.23;10.32;;;;;;;8.65;56.11;99366.50;5044722;28;20029;-73
2021/03/18 06:19:22;;;;;;;17.50;8.77;;;;;;;8.59;56.32;99364.50;5081687;28;20505;-67
2021/03/18 06:21:53;;;;;;;12.90;9.23;;;;;;;8.60;55.93;99368.78;5046006;28;20044;-74
2021/03/18 06:24:21;;;;;;;10.50;8.23;;;;;;;8.45;56.51;99368.53;5046311;28;20659;-68
2021/03/18 06:26:46;;;;;;;12.10;8.05;;;;;;;8.48;55.93;99372.69;5047281;28;20033;-67
2021/03/18 06:29:37;;;;;;;17.40;8.40;;;;;;;8.50;55.12;99360.97;5047365;28;20022;-64
2021/03/18 06:32:16;;;;;;;11.90;8.07;;;;;;;8.20;56.76;99382.53;5051141;28;20033;-64
2021/03/18 06:34:51;;;;;;;10.88;7.75;;;;;;;8.18;56.81;99376.56;5047548;28;20045;-64
2021/03/18 06:37:35;;;;;;;;;;;;;;;8.50;55.35;99381.25;5046129;28;20029;-64
2021/03/18 06:40:14;;;;;;;13.63;8.43;;;;;;;8.70;55.38;99385.31;5043678;28;20247;-68
2021/03/18 06:42:50;;;;;;;12.02;8.32;;;;;;;8.80;54.97;99385.19;5046506;28;20291;-74
2021/03/18 06:45:16;;;;;;;14.00;8.93;;;;;;;8.71;54.77;99384.34;5047109;28;20038;-74
2021/03/18 06:47:45;;;;;;;13.45;8.23;;;;;;;8.79;54.87;99391.47;5046512;28;20107;-69
2021/03/18 06:50:13;;;;;;;12.43;7.82;;;;;;;9.03;53.99;99388.91;5050090;28;20029;-73
2021/03/18 06:52:40;;;;;;;12.30;8.50;;;;;;;9.08;53.83;99393.69;5043257;28;20040;-67
2021/03/18 06:55:09;;;;;;;13.48;8.35;;;;;;;9.18;54.05;99400.50;5055496;28;20036;-73
2021/03/18 06:57:35;;;;;;;13.85;8.68;;;;;;;9.33;53.02;99397.22;5062486;28;20345;-73
2021/03/18 07:00:01;;;;;;;33.47;20.73;;;;;;;9.46;52.79;99402.88;5057574;28;20029;-74
2021/03/18 07:02:27;;;;;;;14.25;8.70;;;;;;;9.45;52.56;99402.06;5054053;28;20045;-73
2021/03/18 07:04:55;;;;;;;11.80;7.80;;;;;;;9.56;52.00;99406.19;5052610;28;20386;-73
2021/03/18 07:07:26;;;;;;;13.23;8.73;;;;;;;10.23;51.54;99404.22;5053769;28;20032;-73
2021/03/18 07:09:54;;;;;;;13.60;7.25;;;;;;;10.33;49.79;99396.09;5054018;28;20134;-73
2021/03/18 07:12:31;;;;;;;8.68;6.10;;;;;;;10.39;48.40;99406.00;5054208;28;20097;-74
2021/03/18 07:15:00;;;;;;;10.18;6.53;;;;;;;10.35;48.96;99405.53;5055135;28;20108;-67
2021/03/18 07:17:31;;;;;;;10.68;6.50;;;;;;;10.52;47.57;99409.00;5053235;28;20063;-67
2021/03/18 07:20:14;;;;;;;9.52;6.85;;;;;;;10.73;47.74;99414.53;5050186;28;20421;-73
2021/03/18 07:22:59;;;;;;;9.60;6.88;;;;;;;11.02;47.30;99411.28;5053792;28;20022;-67
2021/03/18 07:25:28;;;;;;;;;;;;;;;11.15;46.94;99411.53;5056106;28;20244;-67
2021/03/18 07:27:58;;;;;;;10.77;6.53;;;;;;;11.23;46.88;99423.94;5053651;28;20195;-67
2021/03/18 07:30:30;;;;;;;9.85;6.65;;;;;;;11.27;46.12;99397.91;5051835;28;20315;-67
2021/03/18 07:32:57;;;;;;;23.88;6.10;;;;;;;10.79;45.92;99413.03;5052993;28;20041;-67
2021/03/18 07:35:24;;;;;;;8.32;6.10;;;;;;;10.58;45.85;99423.38;5052014;28;20037;-67
2021/03/18 07:37:51;;;;;;;10.07;5.95;;;;;;;10.54;46.73;99426.34;5053987;28;20032;-67
2021/03/18 07:40:17;;;;;;;10.27;5.88;;;;;;;10.71;46.25;99415.72;5053290;28;20052;-67
2021/03/18 07:42:43;;;;;;;10.10;6.43;;;;;;;11.19;46.23;99417.31;5051485;28;20083;-67
2021/03/18 07:45:10;;;;;;;8.65;5.97;;;;;;;11.86;44.70;99414.13;5052721;28;20032;-68
2021/03/18 07:47:37;;;;;;;8.40;5.50;;;;;;;11.72;43.64;99427.13;5053174;28;20239;-67
2021/03/18 07:50:09;;;;;;;11.13;6.05;;;;;;;11.51;44.11;99426.94;5054787;28;20033;-74
2021/03/18 07:52:37;;;;;;;6.95;5.18;;;;;;;11.30;44.41;99434.66;5053901;28;20037;-73
2021/03/18 07:55:04;;;;;;;8.07;5.65;;;;;;;11.19;44.10;99423.44;5059309;28;20227;-73
2021/03/18 07:57:40;;;;;;;8.18;6.13;;;;;;;11.35;43.90;99424.34;5061567;28;20092;-73
2021/03/18 08:00:15;;;;;;;8.00;5.03;;;;;;;11.07;44.58;99418.72;5051813;28;20354;-73
2021/03/18 08:02:41;;;;;;;10.45;5.47;;;;;;;11.00;45.06;99429.19;5053199;28;21184;-73
2021/03/18 08:05:07;;;;;;;9.57;5.85;;;;;;;10.93;45.93;99424.72;5052223;28;20063;-73
2021/03/18 08:07:43;;;;;;;9.20;5.60;;;;;;;11.07;44.68;99424.00;5053171;28;20037;-73
2021/03/18 08:10:10;;;;;;;8.82;5.75;;;;;;;11.13;44.18;99424.16;5053707;28;20033;-74
2021/03/18 08:12:49;;;;;;;8.68;5.75;;;;;;;11.22;44.14;99426.75;5054362;28;20033;-68
2021/03/18 08:15:40;;;;;;;9.10;5.63;;;;;;;11.10;44.99;99427.13;5052861;28;20064;-73
2021/03/18 08:18:15;;;;;;;6.97;4.97;;;;;;;11.28;43.95;99420.75;5060293;28;20075;-67
2021/03/18 08:20:40;;;;;;;;;;;;;;;11.40;44.23;99414.88;5059149;28;20253;-67
2021/03/18 08:23:24;;;;;;;9.40;5.72;;;;;;;11.37;44.04;99422.34;5053501;28;19920;-73
2021/03/18 08:25:55;;;;;;;7.90;5.70;;;;;;;11.80;44.52;99416.47;5052309;28;20032;-73
2021/03/18 08:28:39;;;;;;;10.70;5.47;;;;;;;11.98;42.81;99426.78;5050993;28;20024;-67
2021/03/18 08:31:13;;;;;;;8.23;5.82;;;;;;;12.02;42.63;99427.25;5051240;28;20025;-74
2021/03/18 08:33:47;;;;;;;8.38;5.40;;;;;;;12.28;42.84;99430.31;5051333;28;20092;-71
2021/03/18 08:36:33;;;;;;;9.50;5.80;;;;;;;12.14;43.92;99429.28;5052657;28;20029;-73
2021/03/18 08:39:06;;;;;;;7.32;5.15;;;;;;;12.02;43.49;99421.94;5051280;28;20315;-74
2021/03/18 08:41:36;;;;;;;8.45;5.75;;;;;;;11.95;43.19;99423.66;5050932;28;20038;-74
2021/03/18 08:44:24;;;;;;;6.75;5.10;;;;;;;11.84;42.76;99422.25;5052886;28;20025;-67
2021/03/18 08:47:03;;;;;;;7.18;5.22;;;;;;;11.80;43.00;99427.09;5053266;28;20037;-69
2021/03/18 08:49:41;;;;;;;8.80;4.57;;;;;;;11.51;44.48;99435.72;5054996;28;20109;-72
2021/03/18 08:52:34;;;;;;;6.82;4.93;;;;;;;11.58;44.58;99429.72;5059244;28;20287;-73
2021/03/18 08:55:00;;;;;;;7.75;5.75;;;;;;;11.78;42.48;99429.09;5060466;28;20057;-73
2021/03/18 08:57:28;;;;;;;8.38;4.82;;;;;;;12.03;42.50;99423.59;5051864;28;20263;-65
2021/03/18 08:59:57;;;;;;;10.45;5.00;;;;;;;11.75;41.75;99428.59;5052453;28;20037;-66
2021/03/18 09:02:30;;;;;;;6.55;4.95;;;;;;;11.25;43.91;99431.69;5053468;28;20247;-66
2021/03/18 09:04:56;;;;;;;6.00;4.60;;;;;;;11.10;43.95;99431.63;5052678;28;20041;-66
2021/03/18 09:07:24;;;;;;;6.60;4.68;;;;;;;11.46;43.82;99427.47;5058683;28;20345;-66
2021/03/18 09:10:13;;;;;;;7.78;4.70;;;;;;;11.63;41.76;99430.84;5057097;28;20366;-69
2021/03/18 09:12:39;;;;;;;6.72;4.43;;;;;;;11.89;41.75;99429.69;5056291;28;20036;-67
2021/03/18 09:15:22;;;;;;;6.25;4.38;;;;;;;12.18;40.94;99436.91;5050458;28;20235;-67
2021/03/18 09:18:09;;;;;;;6.13;3.97;;;;;;;12.22;40.04;99431.06;5052869;28;20033;-74
2021/03/18 09:20:35;;;;;;;7.30;4.00;;;;;;;12.41;38.96;99435.00;5057198;28;20615;-67
2021/03/18 09:23:14;;;;;;;6.40;4.70;;;;;;;12.19;38.47;99436.72;5050775;28;20075;-67
2021/03/18 09:25:40;;;;;;;5.72;4.55;;;;;;;12.22;40.03;99432.88;5051817;28;20335;-73
2021/03/18 09:28:08;;;;;;;3.80;3.25;;;;;;;12.29;39.76;99431.97;5050594;28;20127;-67
2021/03/18 09:30:37;;;;;;;6.70;4.63;;;;;;;12.43;39.64;99428.50;5050396;28;20074;-67
2021/03/18 09:33:20;;;;;;;5.38;4.78;;;;;;;12.60;39.77;99425.72;5059294;28;20033;-67
2021/03/18 09:35:46;;;;;;;5.38;4.20;;;;;;;12.61;38.56;99428.19;5058190;28;20226;-67
2021/03/18 09:38:21;;;;;;;6.38;4.10;;;;;;;12.77;38.32;99430.66;5059639;28;20029;-65
2021/03/18 09:40:47;;;;;;;10.70;4.20;;;;;;;12.50;36.40;99428.66;5060739;28;20044;-66
2021/03/18 09:43:16;;;;;;;6.45;4.45;;;;;;;12.62;37.07;99416.56;5048870;28;20124;-71
2021/03/18 09:45:58;;;;;;;6.22;3.40;;;;;;;12.89;36.90;99427.53;5050541;28;20337;-71
2021/03/18 09:48:26;;;;;;;6.82;3.30;;;;;;;12.87;36.93;99416.28;5049521;28;20279;-64
2021/03/18 09:50:53;;;;;;;5.28;2.80;;;;;;;13.07;36.55;99417.34;5052182;28;20052;-64
2021/03/18 09:53:19;;;;;;;4.82;3.20;;;;;;;13.02;35.80;99427.72;5052438;28;20040;-64
2021/03/18 09:55:45;;;;;;;3.95;3.25;;;;;;;13.00;35.50;99417.28;5056092;28;20334;-65
2021/03/18 09:58:17;;;;;;;3.80;3.00;;;;;;;13.07;36.05;99418.19;5060345;28;20218;-65
2021/03/18 10:00:42;;;;;;;6.15;3.70;;;;;;;13.17;35.55;99423.22;5059874;28;20037;-66
2021/03/18 10:03:08;;;;;;;7.78;4.38;;;;;;;13.35;36.46;99418.31;5060194;28;20254;-65
2021/03/18 10:05:35;;;;;;;4.97;3.15;;;;;;;13.50;35.68;99420.94;5059157;28;20242;-64
2021/03/18 10:08:02;;;;;;;5.85;3.83;;;;;;;13.61;35.07;99428.44;5060218;28;20036;-65
2021/03/18 10:10:30;;;;;;;6.20;4.60;;;;;;;13.86;36.38;99428.06;5057339;28;20608;-65
2021/03/18 10:12:55;;;;;;;3.80;3.28;;;;;;;13.80;35.33;99424.34;5060282;28;20262;-70
2021/03/18 10:15:22;;;;;;;5.90;3.92;;;;;;;13.95;35.27;99430.41;5058798;28;20076;-65
2021/03/18 10:17:49;;;;;;;5.80;4.07;;;;;;;14.00;34.88;99427.19;5059312;28;20053;-71
2021/03/18 10:20:19;;;;;;;12.00;4.07;;;;;;;14.04;34.78;99421.28;5059077;28;20100;-69
2021/03/18 10:22:49;;;;;;;5.07;3.38;;;;;;;13.89;34.00;99422.38;5059041;28;20032;-71
2021/03/18 10:25:19;;;;;;;6.20;4.38;;;;;;;13.98;36.01;99416.72;5058875;28;20035;-71
2021/03/18 10:27:57;;;;;;;5.43;3.72;;;;;;;13.82;35.46;99419.66;5058874;28;20041;-65
2021/03/18 10:30:24;;;;;;;5.38;4.00;;;;;;;13.87;35.43;99427.06;5058817;28;20048;-65
2021/03/18 10:33:00;;;;;;;5.35;3.90;;;;;;;13.54;36.12;99424.91;5041597;28;20033;-65
2021/03/18 10:35:37;;;;;;;7.13;4.75;;;;;;;13.41;37.03;99430.88;5058374;28;20056;-65
2021/03/18 10:38:05;;;;;;;4.78;3.25;;;;;;;13.23;35.52;99425.16;5058305;28;20028;-65
2021/03/18 10:40:39;;;;;;;8.20;3.75;;;;;;;13.12;35.52;99428.25;5057968;28;20033;-64
2021/03/18 10:43:17;;;;;;;4.85;3.63;;;;;;;13.38;35.85;99430.44;5057391;28;20043;-71
2021/03/18 10:45:44;;;;;;;6.30;3.88;;;;;;;13.66;36.20;99420.72;5059773;28;20029;-65
2021/03/18 10:48:10;;;;;;;8.60;4.65;;;;;;;13.56;34.42;99419.41;5059707;28;20016;-71
2021/03/18 10:50:37;;;;;;;6.53;3.90;;;;;;;13.52;35.24;99420.75;5058871;28;20342;-64
2021/03/18 10:53:09;;;;;;;6.13;3.58;;;;;;;13.46;35.34;99414.34;5061573;28;20052;-65
2021/03/18 10:55:40;;;;;;;3.85;3.33;;;;;;;13.22;34.75;99420.84;5061834;28;20087;-71
2021/03/18 10:58:08;;;;;;;8.95;4.38;;;;;;;13.35;35.85;99418.31;5062668;28;20044;-71
2021/03/18 11:00:38;;;;;;;6.93;4.20;;;;;;;13.16;37.83;99410.91;5061536;28;20555;-72
2021/03/18 11:03:09;;;;;;;4.10;3.33;;;;;;;13.13;36.27;99415.78;5062451;28;20029;-71
2021/03/18 11:05:37;;;;;;;6.75;4.15;;;;;;;13.16;36.22;99415.41;5062653;28;20082;-71
2021/03/18 11:08:04;;;;;;;4.57;3.60;;;;;;;13.12;36.72;99404.31;5063456;28;20372;-71
2021/03/18 11:10:48;;;;;;;4.53;3.58;;;;;;;13.29;37.74;99413.75;5062045;28;20061;-71
2021/03/18 11:13:20;;;;;;;6.03;4.07;;;;;;;13.25;36.19;99415.16;5062013;28;20029;-64
2021/03/18 11:15:53;;;;;;;8.43;4.90;;;;;;;13.11;36.16;99400.03;5062791;28;20033;-71
2021/03/18 11:18:28;;;;;;;8.20;5.30;;;;;;;13.00;36.81;99406.63;5063427;28;20235;-65
2021/03/18 11:20:54;;;;;;;9.30;5.80;;;;;;;12.79;37.05;99401.25;5062509;28;20060;-71
2021/03/18 11:23:36;;;;;;;9.15;6.82;;;;;;;12.98;38.68;99413.16;5063517;28;20335;-64
2021/03/18 11:26:05;;;;;;;8.90;5.20;;;;;;;12.99;36.30;99409.47;5062706;28;20020;-64
2021/03/18 11:28:33;;;;;;;6.38;3.88;;;;;;;13.08;36.46;99417.16;5061355;28;20033;-65
2021/03/18 11:31:09;;;;;;;5.63;4.78;;;;;;;13.31;36.14;99405.59;5062497;28;20049;-65
2021/03/18 11:33:35;;;;;;;5.40;4.80;;;;;;;13.13;35.66;99410.47;5063324;28;20036;-65
2021/03/18 11:36:04;;;;;;;6.70;4.68;;;;;;;12.85;36.61;99392.53;5055965;28;20029;-64
2021/03/18 11:38:30;;;;;;;3.97;3.50;;;;;;;12.83;36.13;99415.81;5053473;28;20104;-64
2021/03/18 11:40:56;;;;;;;5.53;4.30;;;;;;;12.73;37.62;99405.47;5052113;28;20100;-65
2021/03/18 11:43:23;;;;;;;5.53;4.63;;;;;;;12.72;37.64;99405.66;5052254;28;20040;-71
2021/03/18 11:45:48;;;;;;;6.07;4.55;;;;;;;12.60;37.76;99399.97;5052110;28;20039;-64
2021/03/18 11:48:14;;;;;;;9.13;4.82;;;;;;;12.36;36.26;99403.69;5052420;28;20037;-64